createdAt,value
2023-04-07T00:03:38.551Z,4.47
2023-04-07T00:08:42.695Z,3.70
2023-04-07T00:13:46.315Z,3.08
2023-04-07T00:18:49.833Z,3.55
2023-04-07T00:23:54.618Z,2.95
2023-04-07T00:28:58.999Z,3.28
2023-04-07T00:34:02.706Z,3.35
2023-04-07T00:39:06.362Z,4.07
2023-04-07T00:44:10.092Z,4.57
2023-04-07T00:49:13.942Z,3.90
2023-04-07T00:54:18.405Z,2.75
2023-04-07T00:59:22.243Z,4.28
2023-04-07T01:04:33.509Z,3.55
2023-04-07T01:10:00.881Z,3.50
2023-04-07T01:15:12.731Z,2.78
2023-04-07T01:20:21.635Z,2.53
2023-04-07T01:25:34.200Z,2.33
2023-04-07T01:30:42.087Z,2.92
2023-04-07T01:35:47.332Z,2.80
2023-04-07T01:40:52.421Z,2.97
2023-04-07T01:45:58.357Z,3.42
2023-04-07T01:51:03.275Z,3.20
2023-04-07T01:56:07.452Z,3.25
2023-04-07T02:01:14.924Z,3.58
2023-04-07T02:06:28.352Z,3.20
2023-04-07T02:11:34.909Z,3.35
2023-04-07T02:16:42.226Z,2.90
2023-04-07T02:21:47.102Z,3.63
2023-04-07T02:26:53.124Z,4.13
2023-04-07T02:31:56.931Z,3.00
2023-04-07T02:37:00.029Z,3.33
2023-04-07T02:42:04.447Z,3.42
2023-04-07T02:47:07.730Z,3.70
2023-04-07T02:52:11.812Z,3.75
2023-04-07T02:57:15.266Z,2.85
2023-04-07T03:02:18.669Z,2.42
2023-04-07T03:07:23.174Z,2.75
2023-04-07T03:12:30.696Z,2.65
2023-04-07T03:17:35.058Z,2.80
2023-04-07T03:22:38.816Z,2.33
2023-04-07T03:27:47.551Z,2.35
2023-04-07T03:32:52.274Z,2.90
2023-04-07T03:37:56.056Z,2.72
2023-04-07T03:43:00.446Z,2.70
2023-04-07T03:48:03.777Z,2.38
2023-04-07T03:53:09.725Z,3.65
2023-04-07T03:58:13.973Z,4.57
2023-04-07T04:03:18.615Z,4.43
2023-04-07T04:08:34.258Z,8.13
2023-04-07T04:13:37.919Z,5.53
2023-04-07T04:18:42.466Z,3.30
2023-04-07T04:23:49.287Z,3.40
2023-04-07T04:28:54.107Z,2.83
2023-04-07T04:33:58.784Z,3.58
2023-04-07T04:39:03.634Z,3.45
2023-04-07T04:44:08.120Z,3.92
2023-04-07T04:49:12.387Z,3.47
2023-04-07T04:54:17.704Z,3.33
2023-04-07T04:59:23.147Z,4.20
2023-04-07T05:04:35.890Z,3.65
2023-04-07T05:09:59.571Z,3.25
2023-04-07T05:15:03.575Z,3.78
2023-04-07T05:20:09.582Z,4.30
2023-04-07T05:25:16.600Z,4.10
2023-04-07T05:30:22.596Z,4.00
2023-04-07T05:35:26.444Z,4.13
2023-04-07T05:40:34.055Z,4.38
2023-04-07T05:45:40.785Z,4.22
2023-04-07T05:50:44.834Z,4.47
2023-04-07T05:55:52.745Z,5.03
2023-04-07T06:01:05.021Z,4.82
2023-04-07T06:06:09.257Z,4.95
2023-04-07T06:11:13.510Z,3.72
2023-04-07T06:16:19.057Z,2.80
2023-04-07T06:21:24.401Z,1.88
2023-04-07T06:26:28.678Z,1.50
2023-04-07T06:31:33.318Z,1.35
2023-04-07T06:36:37.852Z,1.38
2023-04-07T06:41:43.476Z,1.45
2023-04-07T06:46:54.362Z,1.30
2023-04-07T06:51:59.381Z,1.17
2023-04-07T06:57:03.216Z,1.10
2023-04-07T07:02:08.009Z,1.00
2023-04-07T07:07:11.782Z,1.23
2023-04-07T07:12:17.447Z,1.10
2023-04-07T07:17:21.102Z,1.30
2023-04-07T07:22:24.907Z,1.20
2023-04-07T07:27:27.929Z,1.20
2023-04-07T07:32:32.082Z,1.40
2023-04-07T07:37:35.372Z,1.60
2023-04-07T07:42:39.902Z,1.52
2023-04-07T07:47:43.743Z,1.40
2023-04-07T07:52:48.847Z,1.33
2023-04-07T07:57:52.544Z,1.30
2023-04-07T08:02:56.808Z,1.45
2023-04-07T08:08:00.483Z,1.60
2023-04-07T08:13:05.624Z,1.25
2023-04-07T08:18:09.727Z,1.90
2023-04-07T08:23:13.965Z,1.40
2023-04-07T08:28:17.459Z,1.60
2023-04-07T08:33:21.109Z,1.38
2023-04-07T08:38:25.226Z,1.35
2023-04-07T08:43:29.661Z,1.80
2023-04-07T08:48:36.178Z,1.80
2023-04-07T08:58:49.837Z,1.65
2023-04-07T09:03:53.808Z,2.50
2023-04-07T09:08:57.795Z,2.53
2023-04-07T09:14:01.997Z,1.90
2023-04-07T09:19:06.606Z,4.95
2023-04-07T09:24:23.236Z,4.68
2023-04-07T09:29:26.400Z,2.70
2023-04-07T09:34:32.155Z,3.42
2023-04-07T09:39:50.981Z,2.67
2023-04-07T09:44:54.979Z,2.40
2023-04-07T09:49:59.711Z,3.05
2023-04-07T09:55:07.271Z,2.22
2023-04-07T10:00:11.746Z,2.35
2023-04-07T10:05:16.528Z,2.58
2023-04-07T10:10:20.292Z,2.55
2023-04-07T10:15:24.053Z,2.40
2023-04-07T10:20:29.186Z,2.58
2023-04-07T10:25:36.575Z,2.15
2023-04-07T10:30:43.529Z,2.50
2023-04-07T10:36:09.319Z,2.80
2023-04-07T10:41:44.129Z,3.38
2023-04-07T10:46:50.024Z,2.35
2023-04-07T10:52:12.274Z,2.47
2023-04-07T10:57:17.291Z,3.13
2023-04-07T11:02:24.242Z,2.00
2023-04-07T11:07:54.194Z,2.35
2023-04-07T11:13:02.625Z,2.28
2023-04-07T11:18:15.152Z,2.20
2023-04-07T11:23:20.459Z,2.20
2023-04-07T11:28:23.795Z,2.10
2023-04-07T11:33:29.932Z,2.83
2023-04-07T11:38:38.315Z,2.40
2023-04-07T11:43:43.253Z,2.25
2023-04-07T11:48:47.832Z,2.53
2023-04-07T11:53:57.627Z,2.50
2023-04-07T11:59:02.898Z,2.08
2023-04-07T12:04:06.814Z,2.40
2023-04-07T12:09:29.902Z,1.80
2023-04-07T12:14:33.668Z,2.10
2023-04-07T12:19:39.775Z,2.30
2023-04-07T12:24:44.256Z,2.20
2023-04-07T12:29:49.153Z,2.63
2023-04-07T12:34:52.803Z,2.25
2023-04-07T12:39:56.446Z,2.50
2023-04-07T12:45:00.756Z,1.73
2023-04-07T12:50:04.887Z,2.05
2023-04-07T12:55:09.369Z,1.70
2023-04-07T13:00:15.087Z,2.20
2023-04-07T13:05:19.241Z,1.70
2023-04-07T13:10:22.849Z,1.52
2023-04-07T13:15:28.769Z,1.50
2023-04-07T13:20:33.213Z,1.73
2023-04-07T13:25:38.576Z,1.70
2023-04-07T13:30:42.189Z,1.60
2023-04-07T13:35:45.348Z,1.60
2023-04-07T13:40:49.937Z,1.50
2023-04-07T13:45:55.518Z,1.35
2023-04-07T13:50:59.601Z,1.98
2023-04-07T13:56:03.990Z,1.60
2023-04-07T14:01:07.653Z,1.77
2023-04-07T14:06:11.441Z,1.30
2023-04-07T14:11:19.415Z,1.30
2023-04-07T14:16:23.279Z,1.58
2023-04-07T14:21:28.073Z,1.50
2023-04-07T14:26:31.309Z,1.38
2023-04-07T14:31:35.000Z,1.33
2023-04-07T14:36:38.732Z,1.17
2023-04-07T14:41:42.206Z,1.35
2023-04-07T14:46:46.921Z,1.40
2023-04-07T14:51:50.507Z,1.20
2023-04-07T14:56:53.788Z,1.60
2023-04-07T15:01:57.636Z,1.38
2023-04-07T15:07:01.168Z,1.80
2023-04-07T15:12:05.755Z,1.40
2023-04-07T15:17:09.438Z,1.70
2023-04-07T15:22:20.688Z,1.10
2023-04-07T15:27:24.350Z,1.58
2023-04-07T15:32:30.711Z,1.30
2023-04-07T15:37:34.495Z,1.60
2023-04-07T15:42:41.682Z,1.60
2023-04-07T15:47:45.202Z,1.67
2023-04-07T15:52:49.103Z,1.60
2023-04-07T15:57:53.520Z,1.63
2023-04-07T16:02:57.321Z,1.85
2023-04-07T16:08:00.756Z,1.70
2023-04-07T16:13:04.360Z,1.30
2023-04-07T16:18:09.242Z,1.60
2023-04-07T16:23:12.738Z,1.40
2023-04-07T16:28:16.269Z,2.33
2023-04-07T16:33:19.781Z,1.42
2023-04-07T16:38:23.368Z,2.00
2023-04-07T16:43:27.121Z,1.70
2023-04-07T16:48:30.690Z,1.88
2023-04-07T16:53:34.115Z,1.98
2023-04-07T16:58:38.178Z,1.83
2023-04-07T17:03:42.372Z,1.90
2023-04-07T17:08:46.314Z,2.28
2023-04-07T17:13:57.156Z,2.53
2023-04-07T17:19:01.181Z,1.85
2023-04-07T17:24:04.281Z,1.83
2023-04-07T17:29:08.423Z,2.47
2023-04-07T17:34:12.561Z,2.15
2023-04-07T17:39:20.232Z,2.78
2023-04-07T17:44:24.135Z,2.50
2023-04-07T17:49:27.924Z,2.65
2023-04-07T17:54:31.453Z,2.60
2023-04-07T17:59:34.833Z,3.10
2023-04-07T18:04:38.140Z,3.75
2023-04-07T18:09:43.169Z,5.72
2023-04-07T18:14:47.014Z,7.63
2023-04-07T18:19:51.018Z,6.75
2023-04-07T18:24:55.106Z,7.47
2023-04-07T18:29:59.123Z,6.68
2023-04-07T18:35:02.684Z,7.57
2023-04-07T18:40:07.174Z,5.70
2023-04-07T18:45:11.195Z,5.70
2023-04-07T18:50:15.665Z,5.13
2023-04-07T18:55:20.967Z,5.10
2023-04-07T19:00:24.109Z,5.28
2023-04-07T19:05:27.737Z,5.57
2023-04-07T19:10:31.276Z,5.38
2023-04-07T19:15:38.500Z,4.55
2023-04-07T19:20:42.144Z,5.80
2023-04-07T19:25:45.910Z,6.40
2023-04-07T19:30:49.287Z,6.28
2023-04-07T19:35:52.784Z,6.13
2023-04-07T19:40:56.868Z,5.50
2023-04-07T19:46:00.096Z,5.30
2023-04-07T19:51:06.721Z,5.25
2023-04-07T19:56:11.402Z,4.95
2023-04-07T20:01:19.104Z,10.63
2023-04-07T20:06:25.295Z,6.60
2023-04-07T20:11:29.423Z,5.18
2023-04-07T20:16:33.098Z,3.45
2023-04-07T20:21:37.805Z,3.20
2023-04-07T20:26:41.809Z,3.25
2023-04-07T20:31:45.611Z,2.25
2023-04-07T20:36:52.200Z,2.20
2023-04-07T20:41:55.795Z,2.10
2023-04-07T20:46:59.584Z,2.40
2023-04-07T20:52:04.496Z,2.20
2023-04-07T20:57:07.944Z,2.85
2023-04-07T21:02:11.603Z,4.85
2023-04-07T21:07:15.342Z,3.20
2023-04-07T21:12:19.190Z,2.45
2023-04-07T21:17:22.838Z,2.13
2023-04-07T21:22:28.427Z,2.20
2023-04-07T21:27:31.994Z,2.63
2023-04-07T21:32:35.825Z,2.05
2023-04-07T21:37:38.920Z,2.22
2023-04-07T21:42:42.009Z,2.38
2023-04-07T21:47:45.783Z,2.50
2023-04-07T21:52:51.240Z,3.10
2023-04-07T21:57:55.425Z,3.17
2023-04-07T22:02:59.746Z,3.85
2023-04-07T22:08:03.534Z,4.90
2023-04-07T22:13:07.179Z,4.43
2023-04-07T22:18:12.226Z,4.53
2023-04-07T22:23:16.488Z,5.43
2023-04-07T22:28:20.685Z,5.03
2023-04-07T22:33:23.875Z,5.03
2023-04-07T22:38:27.708Z,4.05
2023-04-07T22:43:31.339Z,6.63
2023-04-07T22:48:34.587Z,4.65
2023-04-07T22:53:38.764Z,3.80
2023-04-07T22:58:42.326Z,4.00
2023-04-07T23:03:46.483Z,5.85
2023-04-07T23:08:50.447Z,5.47
2023-04-07T23:13:53.720Z,5.65
2023-04-07T23:18:57.201Z,5.93
2023-04-07T23:24:00.457Z,11.98
2023-04-07T23:29:04.521Z,6.53
2023-04-07T23:34:07.952Z,3.20
2023-04-07T23:39:11.813Z,2.45
2023-04-07T23:44:14.927Z,2.00
2023-04-07T23:49:18.105Z,2.47
2023-04-07T23:54:21.781Z,2.03
2023-04-07T23:59:25.569Z,2.00
